Time;durP1;ratioP1;P1;durP2;ratioP2;P2;SDS_P1;SDS_P2;PMS_P1;PMS_P2;Temp;Humidity;BMP_temperature;BMP_pressure;BME280_temperature;BME280_humidity;BME280_pressure;Samples;Min_cycle;Max_cycle;Signal;HPM_P1;HPM_P2
2021/01/23 00:01:53;;;;;;;16.43;7.23;;;4.00;99.90;;;;;;5112969;28;20283;-78
2021/01/23 00:04:20;;;;;;;13.07;7.00;;;4.10;99.90;;;;;;5112801;28;20735;-77
2021/01/23 00:06:46;;;;;;;14.37;7.43;;;4.20;99.90;;;;;;5112595;28;20660;-77
2021/01/23 00:09:12;;;;;;;15.87;7.13;;;4.10;99.90;;;;;;5112754;28;20200;-78
2021/01/23 00:11:39;;;;;;;13.43;7.00;;;4.20;99.90;;;;;;5112172;28;20211;-77
2021/01/23 00:14:06;;;;;;;15.63;6.73;;;4.10;99.90;;;;;;5112896;28;20291;-77
2021/01/23 00:16:32;;;;;;;14.77;6.90;;;4.10;99.90;;;;;;5112667;28;20206;-77
2021/01/23 00:18:59;;;;;;;14.57;7.03;;;4.10;99.90;;;;;;5112345;28;20311;-77
2021/01/23 00:21:25;;;;;;;12.37;6.40;;;4.20;99.90;;;;;;5112678;28;20288;-77
2021/01/23 00:23:51;;;;;;;13.27;7.60;;;4.30;99.90;;;;;;5114472;28;20195;-77
2021/01/23 00:26:18;;;;;;;16.10;6.97;;;4.30;99.90;;;;;;5116089;28;20554;-77
2021/01/23 00:28:45;;;;;;;16.50;6.47;;;4.40;99.90;;;;;;5116592;28;20583;-77
2021/01/23 00:31:13;;;;;;;11.33;6.40;;;4.60;99.90;;;;;;5116539;28;20344;-77
2021/01/23 00:33:39;;;;;;;16.53;6.43;;;4.60;99.90;;;;;;5116555;28;20211;-77
2021/01/23 00:36:06;;;;;;;12.30;6.53;;;4.70;99.90;;;;;;5116389;28;20258;-77
2021/01/23 00:38:33;;;;;;;16.13;6.30;;;4.80;99.90;;;;;;5116277;28;20223;-77
2021/01/23 00:40:59;;;;;;;12.47;6.00;;;4.80;99.90;;;;;;5116050;28;20282;-77
2021/01/23 00:43:25;;;;;;;16.60;6.00;;;4.80;99.90;;;;;;5116394;28;20342;-77
2021/01/23 00:45:52;;;;;;;12.30;5.63;;;4.80;99.90;;;;;;5116097;28;20340;-77
2021/01/23 00:48:19;;;;;;;8.63;5.00;;;4.80;99.90;;;;;;5116209;28;20699;-77
2021/01/23 00:50:45;;;;;;;14.00;5.17;;;4.70;99.90;;;;;;5116022;28;20187;-77
2021/01/23 00:53:11;;;;;;;11.43;5.53;;;4.80;99.90;;;;;;5115899;28;20200;-77
2021/01/23 00:55:38;;;;;;;10.90;5.40;;;4.80;99.90;;;;;;5115793;28;20191;-77
2021/01/23 00:58:04;;;;;;;12.27;5.13;;;4.70;99.90;;;;;;5115940;28;20196;-76
2021/01/23 01:00:31;;;;;;;9.57;4.67;;;4.70;99.90;;;;;;5115963;28;20754;-77
2021/01/23 01:02:58;;;;;;;11.53;4.93;;;4.80;99.90;;;;;;5115814;28;20259;-77
2021/01/23 01:05:24;;;;;;;11.67;4.93;;;4.80;99.90;;;;;;5115808;28;20290;-77
2021/01/23 01:07:50;;;;;;;9.40;4.77;;;4.80;99.90;;;;;;5115467;28;20203;-77
2021/01/23 01:10:17;;;;;;;15.30;5.13;;;4.70;99.90;;;;;;5115649;28;20234;-77
2021/01/23 01:12:43;;;;;;;13.43;5.03;;;4.70;99.90;;;;;;5116067;28;20213;-77
2021/01/23 01:15:10;;;;;;;10.30;4.40;;;4.70;99.90;;;;;;5116413;28;20541;-77
2021/01/23 01:17:37;;;;;;;12.63;4.93;;;4.70;99.90;;;;;;5116794;28;20215;-77
2021/01/23 01:20:05;;;;;;;11.97;4.37;;;4.70;99.90;;;;;;5116312;28;20230;-77
2021/01/23 01:22:32;;;;;;;7.37;4.23;;;4.80;99.90;;;;;;5115692;28;20287;-77
2021/01/23 01:24:58;;;;;;;12.20;4.73;;;4.90;99.90;;;;;;5116174;28;20206;-77
2021/01/23 01:27:24;;;;;;;10.97;4.43;;;5.00;99.90;;;;;;5116359;28;20260;-77
2021/01/23 01:29:51;;;;;;;8.33;4.03;;;4.90;99.90;;;;;;5115424;28;20226;-77
2021/01/23 01:32:17;;;;;;;10.13;4.40;;;5.00;99.90;;;;;;5115365;28;20251;-78
2021/01/23 01:34:44;;;;;;;9.27;4.20;;;4.90;99.90;;;;;;5114482;28;20195;-77
2021/01/23 01:37:11;;;;;;;11.33;4.47;;;5.00;99.90;;;;;;5115074;28;20234;-77
2021/01/23 01:39:37;;;;;;;10.73;4.30;;;5.00;99.90;;;;;;5114954;28;20660;-77
2021/01/23 01:42:04;;;;;;;10.03;3.80;;;5.00;99.90;;;;;;5115202;28;20294;-77
2021/01/23 01:44:31;;;;;;;11.73;4.57;;;5.10;99.90;;;;;;5115272;28;20694;-77
2021/01/23 01:46:58;;;;;;;12.80;4.23;;;5.20;99.90;;;;;;5114969;28;20695;-77
2021/01/23 01:49:25;;;;;;;10.30;4.00;;;5.30;99.90;;;;;;5115214;28;20503;-78
2021/01/23 01:51:53;;;;;;;9.37;4.53;;;5.30;99.90;;;;;;5114745;28;20672;-77
2021/01/23 01:54:22;;;;;;;7.67;4.10;;;5.30;99.90;;;;;;5115245;28;20677;-77
2021/01/23 01:56:48;;;;;;;9.00;4.40;;;5.30;99.90;;;;;;5114868;28;20202;-77
2021/01/23 01:59:14;;;;;;;10.20;3.67;;;5.40;99.90;;;;;;5115094;28;20308;-77
2021/01/23 02:01:41;;;;;;;14.57;4.27;;;5.40;99.90;;;;;;5114845;28;20191;-77
2021/01/23 02:04:25;;;;;;;9.90;4.20;;;5.40;99.90;;;;;;5114906;28;20199;-77
2021/01/23 02:07:16;;;;;;;13.97;4.63;;;5.40;99.90;;;;;;5114718;28;20216;-77
2021/01/23 02:10:02;;;;;;;8.73;4.10;;;5.30;99.90;;;;;;5114399;28;20633;-77
2021/01/23 02:12:35;;;;;;;10.30;4.33;;;5.40;99.90;;;;;;5114359;28;20203;-77
2021/01/23 02:15:04;;;;;;;13.27;4.03;;;5.50;99.90;;;;;;5114724;28;20197;-78
2021/01/23 02:17:37;;;;;;;9.43;4.03;;;5.40;99.90;;;;;;5114393;28;20199;-77
2021/01/23 02:20:13;;;;;;;12.20;4.37;;;5.40;99.90;;;;;;5114471;28;20317;-77
2021/01/23 02:23:03;;;;;;;9.57;4.10;;;5.40;99.90;;;;;;5114318;28;20294;-77
2021/01/23 02:25:37;;;;;;;13.33;4.83;;;5.30;99.90;;;;;;5114284;28;20207;-77
2021/01/23 02:28:12;;;;;;;9.67;4.77;;;5.20;99.90;;;;;;5114597;28;20212;-77
2021/01/23 02:30:43;;;;;;;11.77;5.80;;;5.20;99.90;;;;;;5114201;28;20198;-77
2021/01/23 02:33:12;;;;;;;7.87;4.47;;;5.10;99.90;;;;;;5114060;28;20203;-77
2021/01/23 02:35:40;;;;;;;9.07;4.13;;;5.10;99.90;;;;;;5113311;28;20204;-77
2021/01/23 02:38:08;;;;;;;9.03;4.67;;;5.10;99.90;;;;;;5114536;28;20238;-77
2021/01/23 02:40:35;;;;;;;11.13;4.57;;;5.10;99.90;;;;;;5113784;28;20197;-77
2021/01/23 02:43:04;;;;;;;11.07;4.60;;;5.10;99.90;;;;;;5113838;28;20199;-77
2021/01/23 02:45:30;;;;;;;7.13;3.83;;;5.10;99.90;;;;;;5114435;28;20193;-77
2021/01/23 02:47:57;;;;;;;7.83;3.83;;;5.00;99.90;;;;;;5113636;28;20294;-77
2021/01/23 02:50:26;;;;;;;18.57;4.43;;;4.90;99.90;;;;;;5114004;28;20247;-77
2021/01/23 02:53:01;;;;;;;9.20;4.30;;;4.90;99.90;;;;;;5113677;28;20215;-77
2021/01/23 02:55:33;;;;;;;13.17;4.60;;;4.80;99.90;;;;;;5113426;28;20212;-77
2021/01/23 02:58:03;;;;;;;9.77;4.10;;;4.80;99.90;;;;;;5113888;28;20203;-77
2021/01/23 03:00:32;;;;;;;8.47;4.40;;;4.80;99.90;;;;;;5113608;28;20701;-77
2021/01/23 03:03:00;;;;;;;11.80;4.50;;;4.80;99.90;;;;;;5113550;28;20200;-77
2021/01/23 03:05:28;;;;;;;10.13;4.10;;;4.70;99.90;;;;;;5113610;28;20199;-77
2021/01/23 03:07:56;;;;;;;8.63;4.33;;;4.70;99.90;;;;;;5113559;28;20209;-77
2021/01/23 03:10:37;;;;;;;11.23;4.60;;;4.70;99.90;;;;;;5113774;28;20195;-76
2021/01/23 03:13:04;;;;;;;9.20;4.40;;;4.70;99.90;;;;;;5113834;28;20210;-77
2021/01/23 03:15:31;;;;;;;9.70;4.63;;;4.50;99.90;;;;;;5114731;28;20225;-77
2021/01/23 03:17:58;;;;;;;10.53;4.47;;;4.60;99.90;;;;;;5114212;28;20244;-77
2021/01/23 03:20:25;;;;;;;12.87;4.57;;;4.50;99.90;;;;;;5113655;28;20263;-76
2021/01/23 03:22:53;;;;;;;9.77;4.80;;;4.50;99.90;;;;;;5113322;28;20215;-77
2021/01/23 03:25:19;;;;;;;14.07;4.90;;;4.40;99.90;;;;;;5113131;28;20195;-77
2021/01/23 03:27:46;;;;;;;11.93;4.73;;;4.40;99.90;;;;;;5113334;28;20297;-77
2021/01/23 03:30:13;;;;;;;9.57;4.33;;;4.40;99.90;;;;;;5113141;28;20218;-77
2021/01/23 03:32:39;;;;;;;9.40;4.37;;;4.40;99.90;;;;;;5112984;28;20225;-77
2021/01/23 03:35:07;;;;;;;7.97;4.33;;;4.40;99.90;;;;;;5113127;28;20199;-77
2021/01/23 03:37:34;;;;;;;7.50;4.30;;;4.30;99.90;;;;;;5113246;28;20198;-77
2021/01/23 03:40:02;;;;;;;14.53;4.60;;;4.30;99.90;;;;;;5112775;28;20253;-77
2021/01/23 03:42:28;;;;;;;8.40;4.33;;;4.30;99.90;;;;;;5113268;28;20482;-77
2021/01/23 03:44:55;;;;;;;10.73;4.70;;;4.40;99.90;;;;;;5113289;28;20290;-77
2021/01/23 03:47:21;;;;;;;10.17;4.30;;;4.40;99.90;;;;;;5113032;28;20691;-77
2021/01/23 03:49:48;;;;;;;6.90;4.30;;;4.30;99.90;;;;;;5113098;28;20211;-77
2021/01/23 03:52:14;;;;;;;10.23;4.40;;;4.20;99.90;;;;;;5112953;28;20290;-77
2021/01/23 03:54:41;;;;;;;8.47;4.07;;;4.20;99.90;;;;;;5112725;28;20230;-77
2021/01/23 03:57:09;;;;;;;8.07;4.50;;;4.20;99.90;;;;;;5112902;28;20199;-77
2021/01/23 03:59:36;;;;;;;12.80;4.50;;;4.20;99.90;;;;;;5116320;28;20227;-77
2021/01/23 04:02:03;;;;;;;8.80;4.77;;;4.20;99.90;;;;;;5117221;28;20194;-77
2021/01/23 04:04:29;;;;;;;9.47;4.47;;;4.20;99.90;;;;;;5117132;28;20205;-77
2021/01/23 04:06:56;;;;;;;11.23;4.60;;;4.20;99.90;;;;;;5117013;28;20290;-77
2021/01/23 04:09:23;;;;;;;9.27;4.30;;;4.30;99.90;;;;;;5116788;28;20202;-77
2021/01/23 04:11:49;;;;;;;12.43;5.23;;;4.20;99.90;;;;;;5117023;28;20293;-77
2021/01/23 04:14:17;;;;;;;10.07;4.97;;;4.20;99.90;;;;;;5116764;28;20664;-77
2021/01/23 04:16:46;;;;;;;11.83;4.80;;;4.20;99.90;;;;;;5116898;28;20195;-77
2021/01/23 04:19:12;;;;;;;10.83;4.37;;;4.20;99.90;;;;;;5116842;28;20222;-77
2021/01/23 04:21:39;;;;;;;10.97;4.90;;;4.10;99.90;;;;;;5116579;28;20249;-77
2021/01/23 04:24:06;;;;;;;10.43;4.90;;;4.10;99.90;;;;;;5116781;28;20203;-77
2021/01/23 04:26:32;;;;;;;14.63;5.40;;;4.10;99.90;;;;;;5116654;28;20662;-77
2021/01/23 04:28:59;;;;;;;11.40;5.53;;;4.10;99.90;;;;;;5116722;28;20624;-77
2021/01/23 04:31:26;;;;;;;11.63;4.80;;;4.10;99.90;;;;;;5116852;28;20195;-77
2021/01/23 04:33:52;;;;;;;8.57;5.07;;;4.10;99.90;;;;;;5117820;28;20299;-77
2021/01/23 04:36:18;;;;;;;12.33;5.40;;;4.10;99.90;;;;;;5117238;28;20297;-77
2021/01/23 04:38:45;;;;;;;13.20;5.60;;;4.00;99.90;;;;;;5117119;28;20219;-77
2021/01/23 04:41:11;;;;;;;15.67;6.03;;;4.20;99.90;;;;;;5116519;28;20205;-77
2021/01/23 04:43:37;;;;;;;13.47;5.90;;;4.10;99.90;;;;;;5116251;28;20648;-77
2021/01/23 04:46:04;;;;;;;15.00;5.80;;;4.10;99.90;;;;;;5116351;28;20203;-77
2021/01/23 04:48:32;;;;;;;17.20;6.17;;;4.00;99.90;;;;;;5116209;28;20288;-77
2021/01/23 04:50:58;;;;;;;14.50;5.67;;;4.00;99.90;;;;;;5115948;28;20291;-77
2021/01/23 04:53:24;;;;;;;15.40;5.93;;;4.00;99.90;;;;;;5116137;28;20291;-77
2021/01/23 04:55:51;;;;;;;18.17;7.07;;;4.00;99.90;;;;;;5116246;28;20283;-77
2021/01/23 04:58:17;;;;;;;14.43;6.07;;;4.10;99.90;;;;;;5116216;28;20290;-78
2021/01/23 05:00:43;;;;;;;17.33;6.47;;;4.10;99.90;;;;;;5115837;28;20560;-77
2021/01/23 05:03:10;;;;;;;14.53;6.70;;;4.10;99.90;;;;;;5115926;28;20195;-77
2021/01/23 05:05:38;;;;;;;17.97;7.27;;;4.20;99.90;;;;;;5115707;28;20289;-77
2021/01/23 05:08:11;;;;;;;19.73;7.47;;;4.10;99.90;;;;;;5115810;28;20289;-77
2021/01/23 05:10:39;;;;;;;17.00;7.03;;;4.10;99.90;;;;;;5114468;28;20287;-77
2021/01/23 05:13:13;;;;;;;15.93;7.33;;;4.10;99.90;;;;;;5115703;28;20297;-77
2021/01/23 05:15:42;;;;;;;26.07;7.70;;;4.00;99.90;;;;;;5115810;28;20203;-77
2021/01/23 05:18:09;;;;;;;16.23;6.77;;;4.10;99.90;;;;;;5115568;28;20206;-77
2021/01/23 05:20:39;;;;;;;17.88;6.90;;;4.10;99.90;;;;;;5115724;28;20458;-77
2021/01/23 05:23:07;;;;;;;17.43;7.00;;;4.00;99.90;;;;;;5115452;28;20660;-77
2021/01/23 05:25:35;;;;;;;20.20;7.10;;;4.00;99.90;;;;;;5115410;28;20721;-77
2021/01/23 05:28:02;;;;;;;15.60;7.10;;;4.00;99.90;;;;;;5115447;28;20196;-77
2021/01/23 05:30:46;;;;;;;19.47;7.20;;;4.00;99.90;;;;;;5115234;28;20279;-77
2021/01/23 05:33:14;;;;;;;17.17;6.47;;;4.00;99.90;;;;;;5115647;28;20528;-78
2021/01/23 05:35:42;;;;;;;11.90;6.23;;;3.90;99.90;;;;;;5115268;28;20250;-77
2021/01/23 05:38:23;;;;;;;16.27;6.53;;;3.90;99.90;;;;;;5115323;28;20199;-77
2021/01/23 05:40:52;;;;;;;15.60;5.73;;;4.00;99.90;;;;;;5115213;28;20256;-77
2021/01/23 05:43:36;;;;;;;18.27;6.43;;;3.90;99.90;;;;;;5114995;28;20547;-77
2021/01/23 05:46:06;;;;;;;19.77;6.40;;;3.80;99.90;;;;;;5115057;28;20195;-77
2021/01/23 05:48:34;;;;;;;13.23;5.90;;;3.80;99.90;;;;;;5115569;28;20205;-77
2021/01/23 05:51:02;;;;;;;12.37;5.77;;;3.70;99.90;;;;;;5114932;28;20252;-77
2021/01/23 05:53:29;;;;;;;15.70;5.70;;;3.70;99.90;;;;;;5114833;28;20629;-77
2021/01/23 05:55:59;;;;;;;18.00;6.10;;;3.70;99.90;;;;;;5115016;28;20281;-77
2021/01/23 05:58:25;;;;;;;13.73;6.30;;;3.70;99.90;;;;;;5114823;28;20297;-77
2021/01/23 06:00:54;;;;;;;18.33;6.37;;;3.70;99.90;;;;;;5114764;28;20643;-77
2021/01/23 06:03:21;;;;;;;16.53;6.43;;;3.70;99.90;;;;;;5114762;28;20207;-77
2021/01/23 06:05:53;;;;;;;13.33;5.43;;;3.70;99.90;;;;;;5114721;28;20207;-77
2021/01/23 06:08:39;;;;;;;17.27;6.77;;;3.60;99.90;;;;;;5114826;28;20212;-77
2021/01/23 06:11:05;;;;;;;15.50;6.30;;;3.50;99.90;;;;;;5114385;28;20670;-77
2021/01/23 06:13:41;;;;;;;14.67;5.87;;;3.70;99.90;;;;;;5114611;28;20195;-77
2021/01/23 06:16:37;;;;;;;14.93;6.30;;;3.80;99.90;;;;;;5114292;28;20213;-77
2021/01/23 06:19:37;;;;;;;13.77;5.47;;;3.70;99.90;;;;;;5114348;28;20240;-77
2021/01/23 06:22:03;;;;;;;18.50;6.70;;;3.60;99.90;;;;;;5114079;28;20195;-77
2021/01/23 06:24:52;;;;;;;15.57;6.20;;;3.60;99.90;;;;;;5114255;28;20199;-77
2021/01/23 06:27:18;;;;;;;22.10;6.33;;;3.60;99.90;;;;;;5114372;27;20200;-77
2021/01/23 06:29:45;;;;;;;16.03;6.13;;;3.70;99.90;;;;;;5114307;28;20227;-76
2021/01/23 06:32:30;;;;;;;19.07;6.13;;;3.70;99.90;;;;;;5114189;28;20206;-77
2021/01/23 06:34:59;;;;;;;14.43;5.50;;;3.70;99.90;;;;;;5114023;28;20205;-77
2021/01/23 06:37:28;;;;;;;23.27;7.00;;;3.70;99.90;;;;;;5113939;28;20196;-77
2021/01/23 06:40:08;;;;;;;18.40;6.10;;;3.70;99.90;;;;;;5114006;28;20224;-77
2021/01/23 06:42:36;;;;;;;17.80;6.43;;;3.70;99.90;;;;;;5114139;28;20573;-77
2021/01/23 06:45:23;;;;;;;21.77;7.40;;;3.70;99.90;;;;;;5114231;28;20195;-77
2021/01/23 06:47:51;;;;;;;21.03;6.53;;;3.70;99.90;;;;;;5113922;28;20281;-77
2021/01/23 06:50:35;;;;;;;18.13;6.07;;;3.70;99.90;;;;;;5113772;28;20201;-77
2021/01/23 06:53:03;;;;;;;20.27;7.10;;;3.60;99.90;;;;;;5113746;28;20698;-77
2021/01/23 06:55:50;;;;;;;12.40;5.40;;;3.60;99.90;;;;;;5113809;28;20202;-77
2021/01/23 06:58:19;;;;;;;19.97;6.30;;;3.60;99.90;;;;;;5113556;28;20216;-77
2021/01/23 07:00:46;;;;;;;17.30;5.83;;;3.60;99.90;;;;;;5113474;28;20313;-77
2021/01/23 07:03:14;;;;;;;16.17;6.17;;;3.60;99.90;;;;;;5113712;28;20208;-77
2021/01/23 07:05:54;;;;;;;17.83;5.83;;;3.60;99.90;;;;;;5113600;28;20250;-77
2021/01/23 07:08:25;;;;;;;16.93;5.83;;;3.60;99.90;;;;;;5113519;28;20227;-77
2021/01/23 07:11:12;;;;;;;17.80;6.03;;;3.50;99.90;;;;;;5113720;28;20192;-77
2021/01/23 07:13:56;;;;;;;18.27;5.50;;;3.50;99.90;;;;;;5113579;28;20313;-77
2021/01/23 07:16:22;;;;;;;12.63;5.07;;;3.40;99.90;;;;;;5113450;28;20203;-77
2021/01/23 07:18:52;;;;;;;14.27;4.90;;;3.30;99.90;;;;;;5118785;28;20277;-77
2021/01/23 07:21:20;;;;;;;13.63;5.30;;;3.40;99.90;;;;;;5116594;28;20195;-77
2021/01/23 07:23:47;;;;;;;17.03;5.23;;;3.40;99.90;;;;;;5113650;28;20549;-76
2021/01/23 07:26:15;;;;;;;20.27;5.83;;;3.40;99.90;;;;;;5113347;28;20201;-77
2021/01/23 07:28:45;;;;;;;12.47;5.60;;;3.50;99.90;;;;;;5113948;28;20196;-77
2021/01/23 07:31:33;;;;;;;15.37;5.67;;;3.50;99.90;;;;;;5114329;28;20203;-77
2021/01/23 07:34:01;;;;;;;16.17;5.60;;;3.50;99.90;;;;;;5110024;28;20210;-77
2021/01/23 07:36:35;;;;;;;9.80;5.00;;;3.50;99.90;;;;;;5113611;28;20202;-77
2021/01/23 07:39:06;;;;;;;11.20;5.10;;;3.50;99.90;;;;;;5113200;28;20229;-77
2021/01/23 07:41:34;;;;;;;16.93;6.13;;;3.40;99.90;;;;;;5113257;28;20198;-77
2021/01/23 07:44:01;;;;;;;18.43;6.37;;;3.60;99.90;;;;;;5113037;28;20667;-77
2021/01/23 07:46:38;;;;;;;17.70;6.23;;;3.60;99.90;;;;;;5113261;28;20193;-77
2021/01/23 07:49:06;;;;;;;18.87;6.37;;;3.60;99.90;;;;;;5113072;28;20191;-77
2021/01/23 07:51:33;;;;;;;20.30;6.43;;;3.50;99.90;;;;;;5112978;28;20232;-77
2021/01/23 07:54:04;;;;;;;18.97;5.90;;;3.60;99.90;;;;;;5113129;28;20192;-77
2021/01/23 07:56:30;;;;;;;18.50;6.70;;;3.60;99.90;;;;;;5112868;28;20226;-77
2021/01/23 07:58:57;;;;;;;15.87;6.37;;;3.60;99.90;;;;;;5113094;28;20238;-77
2021/01/23 08:01:24;;;;;;;19.30;6.70;;;3.60;99.90;;;;;;5112746;28;20608;-76
2021/01/23 08:03:50;;;;;;;25.33;6.77;;;3.70;99.90;;;;;;5112738;28;20195;-77
2021/01/23 08:06:21;;;;;;;15.23;6.80;;;3.70;99.90;;;;;;5112912;28;20552;-77
2021/01/23 08:08:48;;;;;;;16.83;6.77;;;3.80;99.90;;;;;;5112761;28;20200;-76
2021/01/23 08:11:36;;;;;;;15.30;6.80;;;3.80;99.90;;;;;;5112562;28;20207;-77
2021/01/23 08:14:11;;;;;;;13.50;6.47;;;3.90;99.90;;;;;;5113000;28;20204;-77
2021/01/23 08:16:51;;;;;;;15.73;6.57;;;4.00;99.90;;;;;;5112689;28;20211;-77
2021/01/23 08:19:18;;;;;;;18.57;7.50;;;4.20;99.90;;;;;;5112630;28;20258;-76
2021/01/23 08:22:03;;;;;;;16.97;6.80;;;4.30;99.90;;;;;;5112530;28;20194;-77
2021/01/23 08:24:30;;;;;;;19.80;7.30;;;4.50;99.90;;;;;;5112632;28;20449;-77
2021/01/23 08:27:00;;;;;;;17.70;7.27;;;4.60;99.90;;;;;;5112628;28;20242;-77
2021/01/23 08:29:27;;;;;;;14.30;6.23;;;4.70;99.90;;;;;;5112605;28;20203;-77
2021/01/23 08:32:01;;;;;;;14.27;6.63;;;4.80;99.90;;;;;;5112626;28;20201;-76
2021/01/23 08:34:27;;;;;;;13.80;6.90;;;4.90;99.90;;;;;;5112485;28;20290;-76
2021/01/23 08:36:53;;;;;;;13.27;6.53;;;5.00;99.90;;;;;;5112517;28;20766;-76
2021/01/23 08:39:19;;;;;;;16.60;6.80;;;5.10;99.90;;;;;;5112175;28;20310;-76
2021/01/23 08:41:46;;;;;;;9.77;5.47;;;5.30;99.90;;;;;;5113345;28;20287;-76
2021/01/23 08:44:12;;;;;;;12.57;6.80;;;5.40;99.90;;;;;;5113003;28;20197;-76
2021/01/23 08:46:39;;;;;;;10.07;5.43;;;5.60;99.90;;;;;;5116224;28;20680;-77
2021/01/23 08:49:06;;;;;;;10.47;5.80;;;5.70;99.90;;;;;;5116227;28;20197;-76
2021/01/23 08:51:33;;;;;;;14.43;5.70;;;5.70;99.90;;;;;;5116071;28;20231;-76
2021/01/23 08:54:00;;;;;;;11.90;6.03;;;5.70;99.90;;;;;;5115894;28;20198;-77
2021/01/23 08:56:26;;;;;;;14.60;5.83;;;5.80;99.90;;;;;;5115925;28;20282;-77
2021/01/23 08:58:53;;;;;;;10.43;5.57;;;5.80;99.90;;;;;;5115545;28;20295;-76
2021/01/23 09:01:19;;;;;;;11.13;6.00;;;6.00;99.90;;;;;;5115816;28;20202;-76
2021/01/23 09:03:46;;;;;;;9.47;4.90;;;6.00;99.90;;;;;;5116076;28;20193;-77
2021/01/23 09:06:12;;;;;;;13.80;5.67;;;6.10;99.90;;;;;;5115847;28;20655;-76
2021/01/23 09:08:39;;;;;;;10.83;5.13;;;6.20;99.90;;;;;;5115882;28;20206;-76
2021/01/23 09:11:05;;;;;;;9.33;5.30;;;6.20;99.90;;;;;;5115704;28;20208;-77
2021/01/23 09:13:32;;;;;;;15.70;5.67;;;6.40;99.90;;;;;;5115776;28;20654;-77
2021/01/23 09:15:58;;;;;;;9.93;5.33;;;6.30;99.90;;;;;;5115524;28;20235;-76
2021/01/23 09:18:25;;;;;;;13.07;5.50;;;6.40;99.90;;;;;;5115737;28;20344;-77
2021/01/23 09:20:52;;;;;;;12.83;5.70;;;6.40;99.90;;;;;;5116036;28;20228;-76
2021/01/23 09:23:18;;;;;;;12.40;5.50;;;6.50;99.90;;;;;;5115549;28;20281;-75
2021/01/23 09:25:44;;;;;;;10.47;4.90;;;6.50;99.90;;;;;;5115351;28;20669;-76
2021/01/23 09:28:11;;;;;;;11.10;5.50;;;6.50;99.90;;;;;;5115241;28;20208;-76
2021/01/23 09:30:37;;;;;;;10.80;5.03;;;6.50;99.90;;;;;;5115738;28;20526;-76
2021/01/23 09:33:03;;;;;;;15.60;5.60;;;6.50;99.90;;;;;;5115402;28;20562;-76
2021/01/23 09:35:30;;;;;;;11.60;5.00;;;6.60;99.90;;;;;;5115272;28;20633;-76
2021/01/23 09:37:57;;;;;;;8.47;5.10;;;6.60;99.90;;;;;;5115041;28;20278;-76
2021/01/23 09:40:24;;;;;;;12.10;5.10;;;6.70;99.90;;;;;;5114923;28;20276;-76
2021/01/23 09:42:50;;;;;;;12.17;5.13;;;6.90;99.90;;;;;;5115047;28;20201;-77
2021/01/23 09:45:17;;;;;;;11.80;5.30;;;7.10;99.90;;;;;;5115312;28;20307;-76
2021/01/23 09:47:43;;;;;;;10.87;4.63;;;7.20;99.90;;;;;;5115013;28;20623;-77
2021/01/23 09:50:10;;;;;;;14.57;4.60;;;7.30;99.90;;;;;;5115046;28;20291;-76
2021/01/23 09:52:36;;;;;;;7.10;4.27;;;7.20;99.90;;;;;;5114668;28;20642;-76
2021/01/23 09:55:04;;;;;;;10.93;5.67;;;7.30;99.90;;;;;;5114974;28;20291;-76
2021/01/23 09:57:31;;;;;;;15.50;4.63;;;7.40;99.90;;;;;;5114191;28;20287;-76
2021/01/23 09:59:57;;;;;;;12.20;5.00;;;7.60;99.90;;;;;;5114661;28;20255;-76
2021/01/23 10:02:24;;;;;;;10.60;4.93;;;7.70;99.90;;;;;;5114699;28;20191;-76
2021/01/23 10:04:50;;;;;;;11.73;4.37;;;7.70;99.90;;;;;;5114636;28;20286;-76
2021/01/23 10:07:16;;;;;;;10.07;4.50;;;7.80;99.90;;;;;;5114599;28;20334;-76
2021/01/23 10:09:43;;;;;;;8.80;4.03;;;8.00;99.90;;;;;;5114532;27;20228;-76
2021/01/23 10:12:10;;;;;;;9.10;4.20;;;8.20;99.90;;;;;;5114091;28;20580;-76
2021/01/23 10:14:37;;;;;;;7.20;4.10;;;8.30;99.90;;;;;;5114741;28;20200;-76
2021/01/23 10:17:04;;;;;;;15.97;4.03;;;8.30;99.90;;;;;;5114472;28;20230;-76
2021/01/23 10:19:30;;;;;;;11.30;4.00;;;8.30;99.90;;;;;;5114336;28;20219;-76
2021/01/23 10:21:58;;;;;;;11.43;3.50;;;8.30;99.90;;;;;;5114401;28;20226;-76
2021/01/23 10:24:24;;;;;;;10.67;3.97;;;8.40;99.90;;;;;;5114201;28;20233;-76
2021/01/23 10:26:50;;;;;;;7.80;3.70;;;8.50;99.90;;;;;;5114013;28;20226;-76
2021/01/23 10:29:18;;;;;;;10.53;3.93;;;8.50;99.90;;;;;;5114316;28;20228;-76
2021/01/23 10:31:44;;;;;;;10.67;3.63;;;8.70;99.90;;;;;;5114675;28;20280;-76
2021/01/23 10:34:10;;;;;;;9.47;3.87;;;8.70;99.90;;;;;;5114626;28;20596;-76
2021/01/23 10:36:36;;;;;;;10.53;4.17;;;8.90;99.90;;;;;;5115193;28;20343;-76
2021/01/23 10:39:03;;;;;;;7.17;3.87;;;8.90;99.90;;;;;;5114112;28;20222;-77
2021/01/23 10:41:30;;;;;;;11.53;4.00;;;9.00;99.90;;;;;;5114755;28;20596;-77
2021/01/23 10:43:56;;;;;;;10.93;3.80;;;9.10;99.90;;;;;;5114091;28;20232;-77
2021/01/23 10:46:23;;;;;;;7.50;3.67;;;9.00;99.90;;;;;;5114181;28;20192;-76
2021/01/23 10:48:50;;;;;;;17.20;3.77;;;9.10;99.90;;;;;;5113621;28;20610;-77
2021/01/23 10:51:16;;;;;;;5.60;3.27;;;9.10;99.90;;;;;;5113999;28;20208;-77
2021/01/23 10:53:46;;;;;;;10.03;3.73;;;9.30;99.90;;;;;;5113741;28;20291;-77
2021/01/23 10:56:13;;;;;;;12.00;3.37;;;9.30;99.90;;;;;;5113987;28;20237;-76
2021/01/23 10:58:39;;;;;;;10.03;3.73;;;9.30;99.90;;;;;;5113896;28;20196;-76
2021/01/23 11:01:05;;;;;;;8.83;3.77;;;9.40;99.90;;;;;;5113742;28;20234;-76
2021/01/23 11:03:32;;;;;;;8.17;3.37;;;9.40;99.90;;;;;;5113576;28;20281;-76
2021/01/23 11:05:59;;;;;;;10.17;3.83;;;9.50;99.90;;;;;;5113342;28;20299;-76
2021/01/23 11:08:26;;;;;;;9.70;3.90;;;9.60;99.90;;;;;;5112390;28;20285;-76
2021/01/23 11:10:53;;;;;;;11.87;3.40;;;9.80;99.90;;;;;;5113343;28;20295;-76
2021/01/23 11:13:20;;;;;;;8.83;3.30;;;9.80;99.90;;;;;;5113621;28;20204;-76
2021/01/23 11:15:46;;;;;;;12.17;3.77;;;9.80;99.90;;;;;;5113398;28;20288;-76
2021/01/23 11:18:12;;;;;;;8.73;3.70;;;10.00;99.90;;;;;;5113402;28;20240;-76
2021/01/23 11:20:39;;;;;;;9.67;3.20;;;10.00;99.90;;;;;;5113156;28;20570;-76
2021/01/23 11:23:06;;;;;;;8.30;3.17;;;10.00;99.90;;;;;;5113213;28;20557;-76
2021/01/23 11:25:32;;;;;;;7.23;3.53;;;10.10;99.90;;;;;;5113367;28;20203;-76
2021/01/23 11:27:59;;;;;;;11.77;3.30;;;9.80;99.90;;;;;;5113089;28;20253;-77
2021/01/23 11:30:25;;;;;;;8.67;3.27;;;9.90;99.90;;;;;;5113501;28;20502;-76
2021/01/23 11:32:52;;;;;;;10.30;3.13;;;9.80;99.90;;;;;;5113228;28;20196;-76
2021/01/23 11:35:20;;;;;;;17.33;3.53;;;9.70;99.90;;;;;;5113046;28;20570;-76
2021/01/23 11:37:47;;;;;;;6.67;2.83;;;10.00;99.90;;;;;;5112937;28;20197;-76
2021/01/23 11:40:14;;;;;;;5.80;2.90;;;10.30;99.90;;;;;;5113151;28;20319;-76
2021/01/23 11:42:40;;;;;;;8.37;3.10;;;10.50;99.90;;;;;;5113468;28;20205;-76
2021/01/23 11:45:08;;;;;;;8.20;2.70;;;10.50;99.90;;;;;;5112779;28;20736;-76
2021/01/23 11:47:35;;;;;;;7.87;2.50;;;10.50;99.90;;;;;;5113171;28;20201;-76
2021/01/23 11:50:01;;;;;;;8.03;2.73;;;10.40;99.90;;;;;;5112814;28;20198;-76
2021/01/23 11:52:27;;;;;;;8.17;2.63;;;10.30;99.90;;;;;;5113018;28;20293;-76
2021/01/23 11:54:55;;;;;;;12.80;2.93;;;10.30;99.90;;;;;;5112898;28;20287;-77
2021/01/23 11:57:21;;;;;;;12.20;2.33;;;10.00;99.90;;;;;;5113118;28;20200;-77
2021/01/23 11:59:47;;;;;;;6.10;2.60;;;9.90;99.90;;;;;;5113023;28;20569;-77
2021/01/23 12:02:14;;;;;;;8.47;2.70;;;9.80;99.90;;;;;;5112910;28;20291;-77
2021/01/23 12:04:40;;;;;;;9.47;2.40;;;9.60;99.90;;;;;;5112719;28;20290;-77
2021/01/23 12:07:06;;;;;;;6.60;2.37;;;9.60;99.90;;;;;;5112953;28;20191;-78
2021/01/23 12:09:33;;;;;;;9.97;2.80;;;9.40;99.90;;;;;;5112907;28;20271;-77
2021/01/23 12:12:00;;;;;;;8.77;2.47;;;9.50;99.90;;;;;;5112811;28;20215;-77
2021/01/23 12:14:26;;;;;;;11.33;2.97;;;9.60;99.90;;;;;;5112906;28;20280;-77
2021/01/23 12:16:53;;;;;;;7.57;2.50;;;9.50;99.90;;;;;;5112884;28;20276;-76
2021/01/23 12:19:19;;;;;;;8.10;2.20;;;9.40;99.90;;;;;;5113366;28;20200;-76
2021/01/23 12:21:46;;;;;;;11.20;2.57;;;9.20;99.90;;;;;;5116813;28;20197;-76
2021/01/23 12:24:14;;;;;;;13.33;2.60;;;9.10;99.90;;;;;;5116801;28;20218;-76
2021/01/23 12:26:40;;;;;;;7.27;2.33;;;9.00;99.90;;;;;;5116819;28;20200;-76
2021/01/23 12:29:07;;;;;;;7.87;2.20;;;9.00;99.90;;;;;;5116450;28;20295;-76
2021/01/23 12:31:34;;;;;;;4.97;2.40;;;8.90;99.90;;;;;;5116586;28;20204;-76
2021/01/23 12:34:00;;;;;;;8.97;2.83;;;8.80;99.90;;;;;;5116353;28;20286;-76
2021/01/23 12:36:26;;;;;;;12.47;3.17;;;8.80;99.90;;;;;;5116616;28;20192;-76
2021/01/23 12:38:53;;;;;;;9.10;3.10;;;8.90;99.90;;;;;;5116378;28;20204;-76
2021/01/23 12:41:19;;;;;;;7.03;3.43;;;8.90;99.90;;;;;;5116588;28;20284;-76
2021/01/23 12:43:45;;;;;;;7.37;2.23;;;9.00;99.90;;;;;;5116205;28;20713;-76
2021/01/23 12:46:13;;;;;;;12.37;3.53;;;9.10;99.90;;;;;;5116075;28;20599;-76
2021/01/23 12:48:39;;;;;;;10.30;3.07;;;9.20;99.90;;;;;;5116250;28;20596;-76
2021/01/23 12:51:06;;;;;;;8.27;2.80;;;9.00;99.90;;;;;;5115957;28;20287;-76
2021/01/23 12:53:32;;;;;;;10.33;2.60;;;9.00;99.90;;;;;;5116098;28;20260;-76
2021/01/23 12:55:58;;;;;;;10.40;2.50;;;9.10;99.90;;;;;;5116677;28;20240;-76